createdAt,value
2023-04-05T00:00:50.171Z,70.20
2023-04-05T00:03:18.806Z,71.10
2023-04-05T00:05:50.023Z,71.40
2023-04-05T00:08:23.842Z,71.40
2023-04-05T00:10:52.121Z,72.20
2023-04-05T00:13:20.032Z,71.80
2023-04-05T00:15:49.208Z,72.20
2023-04-05T00:18:23.743Z,72.60
2023-04-05T00:20:53.453Z,72.30
2023-04-05T00:23:22.778Z,72.00
2023-04-05T00:25:50.693Z,72.40
2023-04-05T00:28:18.540Z,72.40
2023-04-05T00:30:46.340Z,72.10
2023-04-05T00:33:14.637Z,72.90
2023-04-05T00:35:42.521Z,72.80
2023-04-05T00:38:11.753Z,72.80
2023-04-05T00:40:39.894Z,73.70
2023-04-05T00:43:07.930Z,73.80
2023-04-05T00:45:36.019Z,74.00
2023-04-05T00:48:04.466Z,74.30
2023-04-05T00:50:32.843Z,74.90
2023-04-05T00:53:01.316Z,74.20
2023-04-05T00:55:30.485Z,73.90
2023-04-05T00:57:58.882Z,73.60
2023-04-05T01:00:26.983Z,74.20
2023-04-05T01:03:01.741Z,73.60
2023-04-05T01:05:39.388Z,73.80
2023-04-05T01:08:16.293Z,73.20
2023-04-05T01:10:49.322Z,72.70
2023-04-05T01:13:17.994Z,72.90
2023-04-05T01:15:46.106Z,73.20
2023-04-05T01:18:14.407Z,73.00
2023-04-05T01:20:53.714Z,73.50
2023-04-05T01:23:37.602Z,73.50
2023-04-05T01:26:26.713Z,74.00
2023-04-05T01:29:11.771Z,74.20
2023-04-05T01:31:46.837Z,74.80
2023-04-05T01:34:19.974Z,74.50
2023-04-05T01:36:54.168Z,74.40
2023-04-05T01:39:22.448Z,74.50
2023-04-05T01:41:50.279Z,74.60
2023-04-05T01:44:18.106Z,75.10
2023-04-05T01:46:47.559Z,75.00
2023-04-05T01:49:15.401Z,75.10
2023-04-05T01:51:43.212Z,75.30
2023-04-05T01:54:11.295Z,75.60
2023-04-05T01:56:39.177Z,75.40
2023-04-05T01:59:07.028Z,75.40
2023-04-05T02:01:34.849Z,74.80
2023-04-05T02:04:04.079Z,75.40
2023-04-05T02:06:32.202Z,74.40
2023-04-05T02:09:00.112Z,74.90
2023-04-05T02:11:27.884Z,74.90
2023-04-05T02:13:55.764Z,75.60
2023-04-05T02:16:25.652Z,76.10
2023-04-05T02:18:57.803Z,75.80
2023-04-05T02:21:27.708Z,75.60
2023-04-05T02:23:56.150Z,75.90
2023-04-05T02:26:24.190Z,76.10
2023-04-05T02:28:52.036Z,76.60
2023-04-05T02:31:19.907Z,76.50
2023-04-05T02:33:48.806Z,76.30
2023-04-05T02:36:16.662Z,76.80
2023-04-05T02:38:46.062Z,76.60
2023-04-05T02:41:13.992Z,76.80
2023-04-05T02:43:41.830Z,77.20
2023-04-05T02:46:09.671Z,76.20
2023-04-05T02:48:38.395Z,76.80
2023-04-05T02:51:06.229Z,77.40
2023-04-05T02:53:34.081Z,77.30
2023-04-05T02:56:03.204Z,77.90
2023-04-05T02:58:31.218Z,77.30
2023-04-05T03:01:01.721Z,78.10
2023-04-05T03:03:30.025Z,78.50
2023-04-05T03:06:09.809Z,79.20
2023-04-05T03:08:38.843Z,77.50
2023-04-05T03:11:08.167Z,77.00
2023-04-05T03:13:36.087Z,76.60
2023-04-05T03:16:05.438Z,77.70
2023-04-05T03:18:33.394Z,78.10
2023-04-05T03:21:01.245Z,78.00
2023-04-05T03:23:31.036Z,78.00
2023-04-05T03:26:00.580Z,78.80
2023-04-05T03:28:32.547Z,78.40
2023-04-05T03:31:00.653Z,78.90
2023-04-05T03:33:28.515Z,79.00
2023-04-05T03:35:56.446Z,79.30
2023-04-05T03:38:24.350Z,78.30
2023-04-05T03:40:52.152Z,79.30
2023-04-05T03:43:19.989Z,79.70
2023-04-05T03:45:49.237Z,79.50
2023-04-05T03:48:20.119Z,79.00
2023-04-05T03:50:47.950Z,79.80
2023-04-05T03:53:17.632Z,79.30
2023-04-05T03:55:49.294Z,79.60
2023-04-05T03:58:17.377Z,79.40
2023-04-05T04:00:45.525Z,80.00
2023-04-05T04:03:15.228Z,80.50
2023-04-05T04:05:43.591Z,80.70
2023-04-05T04:08:11.774Z,80.50
2023-04-05T04:10:39.613Z,79.90
2023-04-05T04:13:07.565Z,80.20
2023-04-05T04:15:35.459Z,80.60
2023-04-05T04:18:03.398Z,80.70
2023-04-05T04:20:32.618Z,80.30
2023-04-05T04:23:00.441Z,80.40
2023-04-05T04:25:30.952Z,81.20
2023-04-05T04:27:59.408Z,81.00
2023-04-05T04:30:27.291Z,81.30
2023-04-05T04:32:55.341Z,81.40
2023-04-05T04:35:25.700Z,81.80
2023-04-05T04:37:57.874Z,81.70
2023-04-05T04:40:26.787Z,81.50
2023-04-05T04:42:54.777Z,81.80
2023-04-05T04:45:22.664Z,81.30
2023-04-05T04:47:53.645Z,81.70
2023-04-05T04:50:22.145Z,81.40
2023-04-05T04:52:49.960Z,82.30
2023-04-05T04:55:25.121Z,81.20
2023-04-05T04:57:53.753Z,82.40
2023-04-05T05:00:22.521Z,82.30
2023-04-05T05:02:51.906Z,81.60
2023-04-05T05:05:22.564Z,82.10
2023-04-05T05:07:50.650Z,82.30
2023-04-05T05:10:20.077Z,81.80
2023-04-05T05:12:48.680Z,81.50
2023-04-05T05:15:16.606Z,82.10
2023-04-05T05:17:44.877Z,82.20
2023-04-05T05:20:13.477Z,81.80
2023-04-05T05:22:42.378Z,81.40
2023-04-05T05:25:12.345Z,81.30
2023-04-05T05:27:41.993Z,81.80
2023-04-05T05:30:11.107Z,82.30
2023-04-05T05:32:42.017Z,80.60
2023-04-05T05:35:10.857Z,78.30
2023-04-05T05:37:38.933Z,78.10
2023-04-05T05:40:08.024Z,75.80
2023-04-05T05:42:35.940Z,73.20
2023-04-05T05:45:07.127Z,72.80
2023-04-05T05:47:34.940Z,72.30
2023-04-05T05:50:03.570Z,68.10
2023-04-05T05:52:31.391Z,67.80
2023-04-05T05:54:59.200Z,70.80
2023-04-05T05:57:27.337Z,68.60
2023-04-05T05:59:55.132Z,65.20
2023-04-05T06:02:24.265Z,64.60
2023-04-05T06:04:52.133Z,64.10
2023-04-05T06:07:19.944Z,63.00
2023-04-05T06:09:47.757Z,62.00
2023-04-05T06:12:15.551Z,65.50
2023-04-05T06:14:43.404Z,67.10
2023-04-05T06:17:11.291Z,65.90
2023-04-05T06:19:40.578Z,68.50
2023-04-05T06:22:08.409Z,67.70
2023-04-05T06:24:36.373Z,63.50
2023-04-05T06:27:04.415Z,60.60
2023-04-05T06:29:32.252Z,58.60
2023-04-05T06:32:00.186Z,57.80
2023-04-05T06:34:28.170Z,59.00
2023-04-05T06:36:57.320Z,58.00
2023-04-05T06:39:25.162Z,55.90
2023-04-05T06:41:53.040Z,55.90
2023-04-05T06:44:20.872Z,55.20
2023-04-05T06:46:48.802Z,54.60
2023-04-05T06:49:16.637Z,59.90
2023-04-05T06:51:44.467Z,64.00
2023-04-05T06:54:13.647Z,63.40
2023-04-05T06:56:41.550Z,62.70
2023-04-05T06:59:09.423Z,63.80
2023-04-05T07:01:37.299Z,61.80
2023-04-05T07:04:05.243Z,60.40
2023-04-05T07:06:34.559Z,62.20
2023-04-05T07:09:03.299Z,60.60
2023-04-05T07:11:32.834Z,59.50
2023-04-05T07:14:00.827Z,57.40
2023-04-05T07:16:29.019Z,58.80
2023-04-05T07:18:57.480Z,60.90
2023-04-05T07:21:25.381Z,59.90
2023-04-05T07:23:55.918Z,59.70
2023-04-05T07:26:23.733Z,59.80
2023-04-05T07:28:53.453Z,61.60
2023-04-05T07:31:21.258Z,60.60
2023-04-05T07:33:49.053Z,56.40
2023-04-05T07:36:16.959Z,55.00
2023-04-05T07:38:44.840Z,55.20
2023-04-05T07:41:12.737Z,56.50
2023-04-05T07:43:40.567Z,52.30
2023-04-05T07:46:09.777Z,52.10
2023-04-05T07:48:37.628Z,50.70
2023-04-05T07:51:07.190Z,49.50
2023-04-05T07:53:35.553Z,48.40
2023-04-05T07:56:05.443Z,46.90
2023-04-05T07:58:33.632Z,47.40
2023-04-05T08:01:02.138Z,47.20
2023-04-05T08:03:35.031Z,47.20
2023-04-05T08:06:11.203Z,46.70
2023-04-05T08:08:39.222Z,45.90
2023-04-05T08:11:07.453Z,46.30
2023-04-05T08:13:36.699Z,47.50
2023-04-05T08:16:04.551Z,46.50
2023-04-05T08:18:33.814Z,45.30
2023-04-05T08:21:01.829Z,45.20
2023-04-05T08:23:29.796Z,46.10
2023-04-05T08:25:57.638Z,46.30
2023-04-05T08:28:25.539Z,45.40
2023-04-05T08:30:55.146Z,47.20
2023-04-05T08:33:22.972Z,46.20
2023-04-05T08:35:52.138Z,46.30
2023-04-05T08:38:20.404Z,47.00
2023-04-05T08:40:49.473Z,46.80
2023-04-05T08:43:24.517Z,45.60
2023-04-05T08:45:53.420Z,46.10
2023-04-05T08:48:21.640Z,45.50
2023-04-05T08:50:53.007Z,45.70
2023-04-05T08:53:21.409Z,46.50
2023-04-05T08:55:51.418Z,44.40
2023-04-05T08:58:22.484Z,45.00
2023-04-05T09:00:52.653Z,46.00
2023-04-05T09:03:23.616Z,44.90
2023-04-05T09:05:54.038Z,45.60
2023-04-05T09:08:22.281Z,44.50
2023-04-05T09:10:51.467Z,43.60
2023-04-05T09:13:19.645Z,42.60
2023-04-05T09:15:47.573Z,45.10
2023-04-05T09:18:25.421Z,42.30
2023-04-05T09:21:04.824Z,44.30
2023-04-05T09:23:32.872Z,41.80
2023-04-05T09:26:00.809Z,43.10
2023-04-05T09:28:49.699Z,42.70
2023-04-05T09:31:34.505Z,43.30
2023-04-05T09:34:04.418Z,44.90
2023-04-05T09:36:34.766Z,43.00
2023-04-05T09:39:07.904Z,42.10
2023-04-05T09:41:36.523Z,41.00
2023-04-05T09:44:04.653Z,41.20
2023-04-05T09:46:34.284Z,41.50
2023-04-05T09:49:03.893Z,42.30
2023-04-05T09:51:37.537Z,40.30
2023-04-05T09:54:07.146Z,41.00
2023-04-05T09:56:38.435Z,40.70
2023-04-05T09:59:10.659Z,39.70
2023-04-05T10:01:41.204Z,41.40
2023-04-05T10:04:09.669Z,41.80
2023-04-05T10:06:40.286Z,42.00
2023-04-05T10:09:09.112Z,41.80
2023-04-05T10:11:38.181Z,40.30
2023-04-05T10:14:07.754Z,41.30
2023-04-05T10:16:39.841Z,41.20
2023-04-05T10:19:14.545Z,41.00
2023-04-05T10:21:45.830Z,40.20
2023-04-05T10:24:23.246Z,41.10
2023-04-05T10:27:00.978Z,39.90
2023-04-05T10:29:38.961Z,42.10
2023-04-05T10:32:14.910Z,42.00
2023-04-05T10:34:46.378Z,42.00
2023-04-05T10:37:26.974Z,41.00
2023-04-05T10:39:56.373Z,40.40
2023-04-05T10:42:29.024Z,40.40
2023-04-05T10:45:04.652Z,41.30
2023-04-05T10:47:37.895Z,41.30
2023-04-05T10:50:12.230Z,41.40
2023-04-05T10:52:43.095Z,39.40
2023-04-05T10:55:11.478Z,38.30
2023-04-05T10:57:40.759Z,39.30
2023-04-05T11:00:11.518Z,40.10
2023-04-05T11:02:39.857Z,39.90
2023-04-05T11:05:28.718Z,39.20
2023-04-05T11:08:01.510Z,39.10
2023-04-05T11:10:29.862Z,39.30
2023-04-05T11:13:08.791Z,40.00
2023-04-05T11:15:37.106Z,39.60
2023-04-05T11:18:07.212Z,41.20
2023-04-05T11:20:42.795Z,40.00
2023-04-05T11:23:13.164Z,40.00
2023-04-05T11:25:41.762Z,39.70
2023-04-05T11:28:09.910Z,40.00
2023-04-05T11:30:48.271Z,39.80
2023-04-05T11:33:40.550Z,39.00
2023-04-05T11:36:09.859Z,39.80
2023-04-05T11:38:40.926Z,39.10
2023-04-05T11:41:13.550Z,40.10
2023-04-05T11:43:42.850Z,40.00
2023-04-05T11:46:10.732Z,41.10
2023-04-05T11:48:38.586Z,40.50
2023-04-05T11:51:10.463Z,39.80
2023-04-05T11:53:39.928Z,40.00
2023-04-05T11:56:10.029Z,40.10
2023-04-05T11:58:38.091Z,41.00
2023-04-05T12:01:07.528Z,38.90
2023-04-05T12:03:36.194Z,39.50
2023-04-05T12:06:06.034Z,39.50
2023-04-05T12:08:43.324Z,38.80
2023-04-05T12:11:12.572Z,39.30
2023-04-05T12:13:40.745Z,39.10
2023-04-05T12:16:09.949Z,38.40
2023-04-05T12:18:38.760Z,38.80
2023-04-05T12:21:08.483Z,38.30
2023-04-05T12:23:37.220Z,37.80
2023-04-05T12:26:08.515Z,38.90
2023-04-05T12:28:52.856Z,37.70
2023-04-05T12:31:38.996Z,37.60
2023-04-05T12:34:07.150Z,39.00
2023-04-05T12:36:35.299Z,39.40
2023-04-05T12:39:07.873Z,38.30
2023-04-05T12:41:38.263Z,38.50
2023-04-05T12:44:15.709Z,38.40
2023-04-05T12:46:44.436Z,38.50
2023-04-05T12:49:13.024Z,38.60
2023-04-05T12:51:44.069Z,38.60
2023-04-05T12:54:14.025Z,38.30
2023-04-05T12:56:43.224Z,39.30
2023-04-05T12:59:11.248Z,38.50
2023-04-05T13:01:39.602Z,37.60
2023-04-05T13:04:15.403Z,37.60
2023-04-05T13:06:43.712Z,37.00
2023-04-05T13:09:11.533Z,38.00
2023-04-05T13:11:39.375Z,37.20
2023-04-05T13:14:08.724Z,37.20
2023-04-05T13:16:36.726Z,36.90
2023-04-05T13:19:04.665Z,38.00
2023-04-05T13:21:32.546Z,36.80
2023-04-05T13:24:00.345Z,37.40
2023-04-05T13:26:28.177Z,36.80
2023-04-05T13:28:55.979Z,37.40
2023-04-05T13:31:25.193Z,37.20
2023-04-05T13:33:53.273Z,36.70
2023-04-05T13:36:21.095Z,37.60
2023-04-05T13:38:48.944Z,38.70
2023-04-05T13:41:16.732Z,37.60
2023-04-05T13:43:44.562Z,37.50
2023-04-05T13:46:12.441Z,36.30
2023-04-05T13:48:41.585Z,37.00
2023-04-05T13:51:09.412Z,37.30
2023-04-05T13:53:37.227Z,36.90
2023-04-05T13:56:06.488Z,36.70
2023-04-05T13:58:34.308Z,36.10
2023-04-05T14:01:02.122Z,35.70
2023-04-05T14:03:30.033Z,36.10
2023-04-05T14:05:59.284Z,35.50
2023-04-05T14:08:27.093Z,36.20
2023-04-05T14:10:54.935Z,36.30
2023-04-05T14:13:22.765Z,36.80
2023-04-05T14:15:50.703Z,36.70
2023-04-05T14:18:18.563Z,36.90
2023-04-05T14:20:46.408Z,37.60
2023-04-05T14:23:15.832Z,36.80
2023-04-05T14:25:43.649Z,36.60
2023-04-05T14:28:11.594Z,36.30
2023-04-05T14:30:39.595Z,36.60
2023-04-05T14:33:07.740Z,37.00
2023-04-05T14:35:35.908Z,37.30
2023-04-05T14:38:03.744Z,36.40
2023-04-05T14:40:32.880Z,36.50
2023-04-05T14:43:00.658Z,36.50
2023-04-05T14:45:28.568Z,37.20
2023-04-05T14:47:56.931Z,36.90
2023-04-05T14:50:24.829Z,37.00
2023-04-05T14:52:54.112Z,37.10
2023-04-05T14:55:21.987Z,37.00
2023-04-05T14:57:51.327Z,36.80
2023-04-05T15:00:19.974Z,37.20
2023-04-05T15:02:48.326Z,37.20
2023-04-05T15:05:16.199Z,36.70
2023-04-05T15:07:43.981Z,36.90
2023-04-05T15:10:12.132Z,37.60
2023-04-05T15:12:39.992Z,37.10
2023-04-05T15:15:09.867Z,37.10
2023-04-05T15:17:37.779Z,36.50
2023-04-05T15:20:06.318Z,36.40
2023-04-05T15:22:35.873Z,36.50
2023-04-05T15:25:03.909Z,35.90
2023-04-05T15:27:31.748Z,36.40
2023-04-05T15:29:59.524Z,36.80
2023-04-05T15:32:28.923Z,36.70
2023-04-05T15:34:57.965Z,36.10
2023-04-05T15:37:25.797Z,36.10
2023-04-05T15:39:53.687Z,35.70
2023-04-05T15:42:21.889Z,35.30
2023-04-05T15:44:50.275Z,35.70
2023-04-05T15:47:18.247Z,36.00
2023-04-05T15:49:48.610Z,35.40
2023-04-05T15:52:16.450Z,34.90
2023-04-05T15:54:44.354Z,35.50
2023-04-05T15:57:12.541Z,35.50
2023-04-05T15:59:40.515Z,35.70
2023-04-05T16:02:09.339Z,35.40
2023-04-05T16:04:39.240Z,36.00
2023-04-05T16:07:09.860Z,35.60
2023-04-05T16:09:37.692Z,34.50
2023-04-05T16:12:05.893Z,34.40
2023-04-05T16:14:34.155Z,33.90
2023-04-05T16:17:02.006Z,34.70
2023-04-05T16:19:29.843Z,34.30
2023-04-05T16:21:57.926Z,34.40
2023-04-05T16:24:28.187Z,34.40
2023-04-05T16:26:56.610Z,35.00
2023-04-05T16:29:24.466Z,35.10
2023-04-05T16:31:52.436Z,34.90
2023-04-05T16:34:20.476Z,34.50
2023-04-05T16:36:48.503Z,34.40
2023-04-05T16:39:16.319Z,35.00
2023-04-05T16:41:45.697Z,34.50
2023-04-05T16:44:13.712Z,35.40
2023-04-05T16:46:41.648Z,35.00
2023-04-05T16:49:09.470Z,35.50
2023-04-05T16:51:37.331Z,35.50
2023-04-05T16:54:05.550Z,36.10
2023-04-05T16:56:33.380Z,36.00
2023-04-05T16:59:05.049Z,35.50
2023-04-05T17:01:34.656Z,35.80
2023-04-05T17:04:02.519Z,36.30
2023-04-05T17:06:31.744Z,36.20
2023-04-05T17:08:59.571Z,36.80
2023-04-05T17:11:28.341Z,37.00
2023-04-05T17:13:57.566Z,37.30
2023-04-05T17:16:27.105Z,37.80
2023-04-05T17:18:55.105Z,38.00
2023-04-05T17:21:22.969Z,38.60
2023-04-05T17:23:50.858Z,38.90
2023-04-05T17:26:18.848Z,39.20
2023-04-05T17:28:46.651Z,39.10
2023-04-05T17:31:14.574Z,39.50
2023-04-05T17:33:44.746Z,40.00
2023-04-05T17:36:13.611Z,40.20
2023-04-05T17:38:41.406Z,40.30
2023-04-05T17:41:09.246Z,40.60
2023-04-05T17:43:37.161Z,40.80
2023-04-05T17:46:05.764Z,40.60
2023-04-05T17:48:33.724Z,40.20
2023-04-05T17:51:08.182Z,40.10
2023-04-05T17:53:36.045Z,40.50
2023-04-05T17:56:04.173Z,40.40
2023-04-05T17:58:32.504Z,40.60
2023-04-05T18:01:00.388Z,40.20
2023-04-05T18:03:28.423Z,40.90
2023-04-05T18:05:56.835Z,40.60
2023-04-05T18:08:26.525Z,41.10
2023-04-05T18:10:57.254Z,40.90
2023-04-05T18:13:25.604Z,41.30
2023-04-05T18:15:54.028Z,41.40
2023-04-05T18:18:22.401Z,42.20
2023-04-05T18:20:51.408Z,45.40
2023-04-05T18:23:22.400Z,47.10
2023-04-05T18:25:52.391Z,46.80
2023-04-05T18:28:23.352Z,47.40
2023-04-05T18:30:51.988Z,48.60
2023-04-05T18:33:22.297Z,49.00
2023-04-05T18:35:50.919Z,48.50
2023-04-05T18:38:19.054Z,48.70
2023-04-05T18:40:47.055Z,48.70
2023-04-05T18:43:16.445Z,49.20
2023-04-05T18:45:44.313Z,49.50
2023-04-05T18:48:12.383Z,49.70
2023-04-05T18:50:40.301Z,50.00
2023-04-05T18:53:09.344Z,48.80
2023-04-05T18:55:37.412Z,49.60
2023-04-05T18:58:05.468Z,49.90
2023-04-05T19:00:35.000Z,51.00
2023-04-05T19:03:02.929Z,51.60
2023-04-05T19:05:30.788Z,52.40
2023-04-05T19:07:58.601Z,53.40
2023-04-05T19:10:26.504Z,53.90
2023-04-05T19:12:54.342Z,53.90
2023-04-05T19:15:22.131Z,54.30
2023-04-05T19:17:51.338Z,54.70
2023-04-05T19:20:19.373Z,55.10
2023-04-05T19:22:47.159Z,55.30
2023-04-05T19:25:15.045Z,56.10
2023-04-05T19:27:42.877Z,55.90
2023-04-05T19:30:11.446Z,56.20
2023-04-05T19:32:39.526Z,56.60
2023-04-05T19:35:10.315Z,57.70
2023-04-05T19:37:38.429Z,57.80
2023-04-05T19:40:07.337Z,58.20
2023-04-05T19:42:35.254Z,58.90
2023-04-05T19:45:03.161Z,57.80
2023-04-05T19:47:31.426Z,58.30
2023-04-05T19:50:00.568Z,58.20
2023-04-05T19:52:42.327Z,59.20
2023-04-05T19:55:28.460Z,59.70
2023-04-05T19:57:56.748Z,60.50
2023-04-05T20:00:33.058Z,61.50
2023-04-05T20:03:01.628Z,61.80
2023-04-05T20:06:11.378Z,62.00
2023-04-05T20:08:42.333Z,62.40
2023-04-05T20:11:12.784Z,62.40
2023-04-05T20:13:43.632Z,61.50
2023-04-05T20:16:13.259Z,62.70
2023-04-05T20:18:41.449Z,62.90
2023-04-05T20:21:09.256Z,63.30
2023-04-05T20:23:38.772Z,63.50
2023-04-05T20:26:08.744Z,62.90
2023-04-05T20:28:39.096Z,62.30
2023-04-05T20:31:09.360Z,61.40
2023-04-05T20:33:46.108Z,60.60
2023-04-05T20:36:16.235Z,62.40
2023-04-05T20:38:45.136Z,62.80
2023-04-05T20:41:15.270Z,63.60
2023-04-05T20:43:43.259Z,63.80
2023-04-05T20:46:11.502Z,63.70
2023-04-05T20:48:39.849Z,64.40
2023-04-05T20:51:09.038Z,64.80
2023-04-05T20:53:37.828Z,63.80
2023-04-05T20:56:06.897Z,63.70
2023-04-05T20:58:36.800Z,62.30
2023-04-05T21:01:05.349Z,59.70
2023-04-05T21:03:35.774Z,58.60
2023-04-05T21:06:04.961Z,60.80
2023-04-05T21:08:33.224Z,61.50
2023-04-05T21:11:01.397Z,60.20
2023-04-05T21:13:29.529Z,61.60
2023-04-05T21:15:59.316Z,62.80
2023-04-05T21:18:27.340Z,63.00
2023-04-05T21:20:56.166Z,63.20
2023-04-05T21:23:27.195Z,63.30
2023-04-05T21:25:55.458Z,63.50
2023-04-05T21:28:23.566Z,63.60
2023-04-05T21:30:51.424Z,64.10
2023-04-05T21:33:20.910Z,64.70
2023-04-05T21:35:48.872Z,64.70
2023-04-05T21:38:16.653Z,64.80
2023-04-05T21:40:45.058Z,64.80
2023-04-05T21:43:13.192Z,64.90
2023-04-05T21:45:41.311Z,65.10
2023-04-05T21:48:09.197Z,65.20
2023-04-05T21:50:38.337Z,65.40
2023-04-05T21:53:07.335Z,65.80
2023-04-05T21:55:35.326Z,66.30
2023-04-05T21:58:03.130Z,66.80
2023-04-05T22:00:30.940Z,66.90
2023-04-05T22:02:58.819Z,66.70
2023-04-05T22:05:37.200Z,66.30
2023-04-05T22:08:07.898Z,66.10
2023-04-05T22:10:36.797Z,65.90
2023-04-05T22:13:04.775Z,66.70
2023-04-05T22:15:32.581Z,66.20
2023-04-05T22:18:00.494Z,66.70
2023-04-05T22:20:28.362Z,67.20
2023-04-05T22:22:56.307Z,68.20
2023-04-05T22:25:26.335Z,68.20
2023-04-05T22:27:59.413Z,68.40
2023-04-05T22:30:28.231Z,69.00
2023-04-05T22:32:56.335Z,68.80
2023-04-05T22:35:24.177Z,68.30
2023-04-05T22:37:52.056Z,68.90
2023-04-05T22:40:19.871Z,69.60
2023-04-05T22:42:48.969Z,70.00
2023-04-05T22:45:16.984Z,70.10
2023-04-05T22:47:44.906Z,69.90
2023-04-05T22:50:12.981Z,69.40
2023-04-05T22:52:40.787Z,69.10
2023-04-05T22:55:09.856Z,68.80
2023-04-05T22:57:37.701Z,69.50
2023-04-05T23:00:08.101Z,69.80
2023-04-05T23:02:36.001Z,70.00
2023-04-05T23:05:03.970Z,69.90
2023-04-05T23:07:31.813Z,69.20
2023-04-05T23:09:59.593Z,70.10
2023-04-05T23:12:27.423Z,69.50
2023-04-05T23:14:56.450Z,69.90
2023-04-05T23:17:25.616Z,69.50
2023-04-05T23:19:53.413Z,69.10
2023-04-05T23:22:21.180Z,69.50
2023-04-05T23:24:48.989Z,69.20
2023-04-05T23:27:16.792Z,70.00
2023-04-05T23:29:44.580Z,70.20
2023-04-05T23:32:12.662Z,71.20
2023-04-05T23:34:42.135Z,71.50
2023-04-05T23:37:09.937Z,71.40
2023-04-05T23:39:37.884Z,71.40
2023-04-05T23:42:06.086Z,72.20
2023-04-05T23:44:34.079Z,72.60
2023-04-05T23:47:01.850Z,72.60
2023-04-05T23:49:29.666Z,73.00
2023-04-05T23:51:58.807Z,73.30
2023-04-05T23:54:26.698Z,73.70
2023-04-05T23:56:54.976Z,73.90
2023-04-05T23:59:22.968Z,73.60
